createdAt,value
2018-07-14T00:01:04.558Z,100426.43
2018-07-14T00:03:37.694Z,100427.42
2018-07-14T00:06:08.549Z,100432.99
2018-07-14T00:08:39.486Z,100430.45
2018-07-14T00:11:10.523Z,100419.10
2018-07-14T00:13:41.611Z,100422.98
2018-07-14T00:16:12.621Z,100425.50
2018-07-14T00:18:43.554Z,100422.48
2018-07-14T00:21:14.495Z,100422.90
2018-07-14T00:23:45.468Z,100423.78
2018-07-14T00:26:20.396Z,100423.59
2018-07-14T00:28:51.481Z,100423.28
2018-07-14T00:31:22.519Z,100422.36
2018-07-14T00:33:53.725Z,100419.33
2018-07-14T00:36:24.613Z,100415.45
2018-07-14T00:38:55.482Z,100418.48
2018-07-14T00:41:26.464Z,100415.34
2018-07-14T00:43:57.468Z,100418.59
2018-07-14T00:46:28.458Z,100423.47
2018-07-14T00:48:59.662Z,100417.11
2018-07-14T00:51:30.557Z,100426.20
2018-07-14T00:54:01.478Z,100427.85
2018-07-14T00:56:32.474Z,100423.55
2018-07-14T00:59:03.452Z,100425.31
2018-07-14T01:01:34.436Z,100416.87
2018-07-14T01:04:05.512Z,100418.41
2018-07-14T01:06:36.529Z,100413.27
2018-07-14T01:09:08.589Z,100413.03
2018-07-14T01:11:39.477Z,100412.66
2018-07-14T01:14:10.481Z,100411.97
2018-07-14T01:16:41.436Z,100419.48
2018-07-14T01:19:12.537Z,100423.97
2018-07-14T01:21:43.467Z,100418.37
2018-07-14T01:24:14.457Z,100420.78
2018-07-14T01:26:45.737Z,100419.98
2018-07-14T01:29:16.631Z,100415.80
2018-07-14T01:31:47.445Z,100421.55
2018-07-14T01:34:18.408Z,100419.52
2018-07-14T01:36:49.468Z,100424.00
2018-07-14T01:39:20.430Z,100418.86
2018-07-14T01:41:51.537Z,100422.66
2018-07-14T01:44:22.445Z,100421.32
2018-07-14T01:46:53.440Z,100417.45
2018-07-14T01:49:24.441Z,100416.36
2018-07-14T01:51:55.502Z,100419.89
2018-07-14T01:54:26.559Z,100412.15
2018-07-14T01:56:57.554Z,100419.67
2018-07-14T01:59:28.478Z,100413.03
2018-07-14T02:01:59.534Z,100408.53
2018-07-14T02:04:30.468Z,100414.30
2018-07-14T02:07:01.489Z,100414.38
2018-07-14T02:09:32.430Z,100415.06
2018-07-14T02:12:03.427Z,100419.47
2018-07-14T02:14:34.420Z,100413.91
2018-07-14T02:17:05.447Z,100414.22
2018-07-14T02:19:36.413Z,100412.41
2018-07-14T02:22:07.466Z,100415.78
2018-07-14T02:24:38.410Z,100419.03
2018-07-14T02:27:09.581Z,100422.56
2018-07-14T02:29:40.468Z,100422.56
2018-07-14T02:32:11.452Z,100428.92
2018-07-14T02:34:42.444Z,100428.62
2018-07-14T02:37:13.441Z,100430.67
2018-07-14T02:39:44.433Z,100430.98
2018-07-14T02:42:15.455Z,100431.73
2018-07-14T02:44:46.448Z,100430.45
2018-07-14T02:47:17.425Z,100423.59
2018-07-14T02:49:48.440Z,100429.92
2018-07-14T02:52:19.611Z,100434.48
2018-07-14T02:54:50.480Z,100427.27
2018-07-14T02:57:21.445Z,100435.11
2018-07-14T02:59:52.528Z,100429.77
2018-07-14T03:02:23.445Z,100434.33
2018-07-14T03:04:54.433Z,100430.98
2018-07-14T03:07:25.462Z,100433.30
2018-07-14T03:09:56.441Z,100431.58
2018-07-14T03:12:27.242Z,100419.72
2018-07-14T03:14:58.414Z,100422.50
2018-07-14T03:17:29.492Z,100427.06
2018-07-14T03:20:00.497Z,100429.05
2018-07-14T03:22:31.462Z,100432.42
2018-07-14T03:25:02.478Z,100429.55
2018-07-14T03:27:33.508Z,100429.09
2018-07-14T03:30:04.468Z,100426.40
2018-07-14T03:32:35.485Z,100420.37
2018-07-14T03:35:06.514Z,100420.28
2018-07-14T03:37:38.021Z,100417.72
2018-07-14T03:40:10.405Z,100425.06
2018-07-14T03:42:41.513Z,100427.92
2018-07-14T03:45:12.529Z,100433.32
2018-07-14T03:47:43.501Z,100428.23
2018-07-14T03:50:14.493Z,100425.74
2018-07-14T03:52:45.472Z,100428.71
2018-07-14T03:55:16.460Z,100429.84
2018-07-14T03:57:47.493Z,100431.89
2018-07-14T04:00:18.469Z,100424.75
2018-07-14T04:02:49.474Z,100428.84
2018-07-14T04:05:20.505Z,100425.69
2018-07-14T04:07:51.530Z,100429.96
2018-07-14T04:10:22.535Z,100426.40
2018-07-14T04:12:53.477Z,100430.61
2018-07-14T04:15:24.531Z,100434.98
2018-07-14T04:18:02.493Z,100434.45
2018-07-14T04:20:34.787Z,100433.58
2018-07-14T04:23:06.440Z,100440.59
2018-07-14T04:25:37.449Z,100438.35
2018-07-14T04:28:08.481Z,100440.84
2018-07-14T04:30:39.472Z,100437.89
2018-07-14T04:33:10.637Z,100445.12
2018-07-14T04:35:41.471Z,100443.13
2018-07-14T04:38:12.495Z,100439.63
2018-07-14T04:40:43.471Z,100442.78
2018-07-14T04:43:14.460Z,100442.53
2018-07-14T04:45:45.480Z,100441.97
2018-07-14T04:48:16.516Z,100447.21
2018-07-14T04:50:47.496Z,100445.95
2018-07-14T04:53:18.518Z,100451.00
2018-07-14T04:55:49.534Z,100447.95
2018-07-14T04:58:20.493Z,100441.20
2018-07-14T05:00:51.474Z,100443.74
2018-07-14T05:03:22.514Z,100445.39
2018-07-14T05:05:53.470Z,100446.17
2018-07-14T05:08:24.588Z,100447.53
2018-07-14T05:10:55.500Z,100446.59
2018-07-14T05:13:26.528Z,100445.80
2018-07-14T05:15:57.490Z,100447.64
2018-07-14T05:18:28.506Z,100450.61
2018-07-14T05:20:59.509Z,100449.72
2018-07-14T05:23:30.485Z,100451.80
2018-07-14T05:26:01.454Z,100453.61
2018-07-14T05:28:32.495Z,100458.86
2018-07-14T05:31:03.444Z,100455.09
2018-07-14T05:33:34.465Z,100457.39
2018-07-14T05:36:05.505Z,100454.17
2018-07-14T05:38:36.537Z,100453.77
2018-07-14T05:41:07.542Z,100446.41
2018-07-14T05:43:38.483Z,100448.28
2018-07-14T05:46:09.502Z,100447.31
2018-07-14T05:48:40.453Z,100450.65
2018-07-14T05:51:11.452Z,100457.39
2018-07-14T05:53:42.458Z,100457.11
2018-07-14T05:56:13.423Z,100455.50
2018-07-14T05:58:44.600Z,100459.30
2018-07-14T06:01:15.492Z,100462.69
2018-07-14T06:03:46.494Z,100459.62
2018-07-14T06:06:17.428Z,100464.13
2018-07-14T06:08:48.455Z,100464.30
2018-07-14T06:11:19.412Z,100457.43
2018-07-14T06:13:50.674Z,100458.42
2018-07-14T06:16:21.505Z,100456.97
2018-07-14T06:18:52.477Z,100465.80
2018-07-14T06:21:23.469Z,100467.67
2018-07-14T06:23:54.531Z,100472.05
2018-07-14T06:26:25.507Z,100468.72
2018-07-14T06:28:56.468Z,100470.59
2018-07-14T06:31:27.508Z,100464.11
2018-07-14T06:33:58.441Z,100464.57
2018-07-14T06:36:29.440Z,100478.38
2018-07-14T06:39:00.487Z,100473.22
2018-07-14T06:41:31.493Z,100470.02
2018-07-14T06:44:02.476Z,100478.27
2018-07-14T06:46:33.478Z,100476.64
2018-07-14T06:49:04.513Z,100481.29
2018-07-14T06:51:35.476Z,100480.66
2018-07-14T06:54:06.518Z,100478.40
2018-07-14T06:56:37.497Z,100485.50
2018-07-14T06:59:08.530Z,100476.27
2018-07-14T07:01:39.500Z,100471.57
2018-07-14T07:04:10.557Z,100473.59
2018-07-14T07:06:41.479Z,100471.14
2018-07-14T07:09:13.469Z,100482.18
2018-07-14T07:11:44.522Z,100478.00
2018-07-14T07:14:15.536Z,100478.89
2018-07-14T07:16:46.512Z,100480.72
2018-07-14T07:19:17.484Z,100478.96
2018-07-14T07:21:48.458Z,100474.23
2018-07-14T07:24:19.912Z,100483.61
2018-07-14T07:26:50.676Z,100488.03
2018-07-14T07:29:21.472Z,100478.59
2018-07-14T07:31:52.409Z,100475.44
2018-07-14T07:34:23.485Z,100479.48
2018-07-14T07:36:54.530Z,100483.83
2018-07-14T07:39:25.464Z,100477.50
2018-07-14T07:41:56.428Z,100479.33
2018-07-14T07:44:27.442Z,100474.80
2018-07-14T07:46:58.472Z,100471.87
2018-07-14T07:49:29.445Z,100469.69
2018-07-14T07:52:00.437Z,100474.27
2018-07-14T07:54:31.465Z,100474.90
2018-07-14T07:57:02.452Z,100475.53
2018-07-14T08:00:38.569Z,100470.51
2018-07-14T08:03:09.456Z,100473.22
2018-07-14T08:05:40.489Z,100473.52
2018-07-14T08:08:11.428Z,100479.77
2018-07-14T08:10:42.389Z,100473.78
2018-07-14T08:13:13.481Z,100468.33
2018-07-14T08:15:44.404Z,100467.05
2018-07-14T08:18:15.381Z,100468.11
2018-07-14T08:20:46.437Z,100461.44
2018-07-14T08:23:17.433Z,100463.33
2018-07-14T08:25:48.421Z,100463.86
2018-07-14T08:28:19.453Z,100461.88
2018-07-14T08:30:50.454Z,100459.30
2018-07-14T08:33:21.429Z,100454.91
2018-07-14T08:35:52.470Z,100458.10
2018-07-14T08:38:23.475Z,100452.59
2018-07-14T08:40:54.501Z,100450.27
2018-07-14T08:43:25.449Z,100448.16
2018-07-14T08:45:56.505Z,100443.69
2018-07-14T08:48:27.468Z,100441.22
2018-07-14T08:50:58.426Z,100442.86
2018-07-14T08:53:29.424Z,100438.20
2018-07-14T08:56:00.446Z,100442.03
2018-07-14T08:58:31.441Z,100437.84
2018-07-14T09:01:02.437Z,100439.36
2018-07-14T09:03:33.449Z,100443.03
2018-07-14T09:06:04.461Z,100443.63
2018-07-14T09:08:35.473Z,100440.17
2018-07-14T09:11:06.554Z,100440.48
2018-07-14T09:13:37.464Z,100442.76
2018-07-14T09:16:08.434Z,100441.22
2018-07-14T09:18:39.441Z,100442.67
2018-07-14T09:21:10.502Z,100432.58
2018-07-14T09:23:41.500Z,100428.66
2018-07-14T09:26:12.487Z,100426.87
2018-07-14T09:28:43.423Z,100429.25
2018-07-14T09:31:14.459Z,100422.78
2018-07-14T09:33:45.428Z,100416.44
2018-07-14T09:36:16.535Z,100418.73
2018-07-14T09:38:47.469Z,100418.11
2018-07-14T09:41:18.501Z,100418.23
2018-07-14T09:43:49.841Z,100413.84
2018-07-14T09:46:20.273Z,100406.73
2018-07-14T09:48:51.374Z,100411.55
2018-07-14T09:51:22.397Z,100405.94
2018-07-14T09:53:53.500Z,100407.66
2018-07-14T09:56:24.634Z,100395.34
2018-07-14T09:58:55.487Z,100394.17
2018-07-14T10:01:26.521Z,100393.81
2018-07-14T10:03:59.308Z,100388.66
2018-07-14T10:06:30.677Z,100390.78
2018-07-14T10:09:01.503Z,100391.33
2018-07-14T10:11:32.456Z,100383.77
2018-07-14T10:14:03.485Z,100386.67
2018-07-14T10:16:34.481Z,100386.26
2018-07-14T10:19:05.480Z,100382.58
2018-07-14T10:21:36.553Z,100383.56
2018-07-14T10:24:07.530Z,100381.84
2018-07-14T10:26:38.534Z,100380.88
2018-07-14T10:29:09.480Z,100382.52
2018-07-14T10:31:40.490Z,100377.82
2018-07-14T10:34:11.480Z,100372.67
2018-07-14T10:36:42.445Z,100369.77
2018-07-14T10:39:14.477Z,100364.75
2018-07-14T10:41:45.527Z,100367.62
2018-07-14T10:44:16.466Z,100367.24
2018-07-14T10:46:47.485Z,100370.34
2018-07-14T10:49:18.440Z,100367.41
2018-07-14T10:51:49.723Z,100363.41
2018-07-14T10:54:20.578Z,100366.44
2018-07-14T10:56:51.549Z,100365.69
2018-07-14T10:59:22.458Z,100360.92
2018-07-14T11:01:53.469Z,100349.38
2018-07-14T11:04:24.468Z,100343.11
2018-07-14T11:06:55.457Z,100341.41
2018-07-14T11:09:26.424Z,100339.53
2018-07-14T11:11:57.430Z,100341.72
2018-07-14T11:14:28.446Z,100332.80
2018-07-14T11:16:59.468Z,100338.00
2018-07-14T11:19:30.433Z,100339.53
2018-07-14T11:22:01.488Z,100342.13
2018-07-14T11:24:32.487Z,100325.20
2018-07-14T11:27:03.493Z,100326.33
2018-07-14T11:29:34.492Z,100333.48
2018-07-14T11:32:05.481Z,100324.06
2018-07-14T11:34:36.549Z,100317.80
2018-07-14T11:37:07.498Z,100316.52
2018-07-14T11:39:38.464Z,100306.46
2018-07-14T11:42:09.502Z,100311.50
2018-07-14T11:44:40.545Z,100299.14
2018-07-14T11:47:11.497Z,100311.33
2018-07-14T11:49:42.499Z,100303.56
2018-07-14T11:52:13.515Z,100297.38
2018-07-14T11:54:44.504Z,100298.02
2018-07-14T11:57:15.527Z,100294.55
2018-07-14T11:59:46.533Z,100293.09
2018-07-14T12:02:17.495Z,100294.20
2018-07-14T12:04:48.481Z,100289.53
2018-07-14T12:07:19.496Z,100287.12
2018-07-14T12:09:50.481Z,100281.61
2018-07-14T12:12:21.503Z,100286.53
2018-07-14T12:14:52.496Z,100281.36
2018-07-14T12:17:23.553Z,100276.80
2018-07-14T12:19:54.470Z,100281.58
2018-07-14T12:22:25.554Z,100287.35
2018-07-14T12:24:56.437Z,100274.00
2018-07-14T12:27:27.483Z,100266.05
2018-07-14T12:29:59.032Z,100266.32
2018-07-14T12:32:30.289Z,100264.51
2018-07-14T12:35:01.369Z,100266.88
2018-07-14T12:37:32.396Z,100255.83
2018-07-14T12:40:03.482Z,100260.28
2018-07-14T12:42:34.480Z,100252.00
2018-07-14T12:45:05.500Z,100252.89
2018-07-14T12:47:36.477Z,100250.34
2018-07-14T12:50:07.497Z,100242.64
2018-07-14T12:52:38.691Z,100240.98
2018-07-14T12:55:09.866Z,100239.97
2018-07-14T12:57:40.589Z,100240.53
2018-07-14T13:00:11.535Z,100236.16
2018-07-14T13:02:42.529Z,100225.14
2018-07-14T13:05:13.453Z,100224.64
2018-07-14T13:07:44.606Z,100228.98
2018-07-14T13:10:15.497Z,100226.80
2018-07-14T13:12:46.473Z,100221.60
2018-07-14T13:15:17.489Z,100231.17
2018-07-14T13:17:48.496Z,100215.02
2018-07-14T13:20:19.533Z,100213.13
2018-07-14T13:22:50.533Z,100202.41
2018-07-14T13:25:21.538Z,100208.73
2018-07-14T13:27:52.529Z,100198.92
2018-07-14T13:30:23.483Z,100204.06
2018-07-14T13:32:54.481Z,100200.12
2018-07-14T13:35:25.468Z,100196.46
2018-07-14T13:37:56.489Z,100199.44
2018-07-14T13:40:27.547Z,100199.04
2018-07-14T13:42:58.547Z,100193.43
2018-07-14T13:45:29.501Z,100203.73
2018-07-14T13:48:00.514Z,100192.42
2018-07-14T13:50:31.485Z,100193.58
2018-07-14T13:53:02.516Z,100198.87
2018-07-14T13:55:33.499Z,100192.75
2018-07-14T13:58:04.521Z,100188.70
2018-07-14T14:00:35.638Z,100191.69
2018-07-14T14:03:06.528Z,100178.94
2018-07-14T14:05:37.521Z,100178.68
2018-07-14T14:08:08.498Z,100171.58
2018-07-14T14:10:39.534Z,100170.31
2018-07-14T14:13:10.509Z,100166.47
2018-07-14T14:15:41.497Z,100174.28
2018-07-14T14:18:12.481Z,100167.81
2018-07-14T14:20:43.497Z,100161.55
2018-07-14T14:23:14.481Z,100164.21
2018-07-14T14:25:45.587Z,100159.47
2018-07-14T14:30:01.368Z,100159.59
2018-07-14T14:32:32.425Z,100156.55
2018-07-14T14:35:03.538Z,100155.53
2018-07-14T14:37:34.490Z,100154.80
2018-07-14T14:40:05.509Z,100151.31
2018-07-14T14:42:36.525Z,100156.50
2018-07-14T14:45:08.219Z,100159.45
2018-07-14T14:47:39.346Z,100152.11
2018-07-14T14:50:10.572Z,100151.92
2018-07-14T14:52:41.505Z,100146.41
2018-07-14T14:55:13.518Z,100144.56
2018-07-14T14:57:44.563Z,100142.09
2018-07-14T15:00:15.501Z,100144.63
2018-07-14T15:02:46.926Z,100137.83
2018-07-14T15:05:17.753Z,100136.48
2018-07-14T15:07:48.622Z,100132.92
2018-07-14T15:10:19.517Z,100138.34
2018-07-14T15:12:50.506Z,100128.19
2018-07-14T15:15:21.501Z,100127.69
2018-07-14T15:17:52.478Z,100119.58
2018-07-14T15:20:23.463Z,100124.87
2018-07-14T15:22:54.469Z,100122.89
2018-07-14T15:25:25.499Z,100120.20
2018-07-14T15:27:56.493Z,100116.41
2018-07-14T15:30:27.517Z,100115.34
2018-07-14T15:32:58.728Z,100119.93
2018-07-14T15:35:29.521Z,100112.31
2018-07-14T15:38:00.519Z,100119.14
2018-07-14T15:40:31.503Z,100111.19
2018-07-14T15:43:02.502Z,100112.58
2018-07-14T15:45:33.497Z,100113.64
2018-07-14T15:48:04.501Z,100110.46
2018-07-14T15:50:35.514Z,100103.38
2018-07-14T15:53:06.606Z,100105.42
2018-07-14T15:55:37.496Z,100103.18
2018-07-14T15:58:08.513Z,100106.39
2018-07-14T16:00:39.629Z,100111.94
2018-07-14T16:03:10.486Z,100113.68
2018-07-14T16:05:42.417Z,100103.54
2018-07-14T16:08:13.562Z,100102.70
2018-07-14T16:10:44.533Z,100102.18
2018-07-14T16:13:15.534Z,100101.41
2018-07-14T16:15:46.588Z,100107.79
2018-07-14T16:18:17.685Z,100106.02
2018-07-14T16:20:49.376Z,100097.71
2018-07-14T16:23:20.400Z,100094.69
2018-07-14T16:25:51.566Z,100093.66
2018-07-14T16:28:22.514Z,100092.22
2018-07-14T16:30:53.534Z,100097.83
2018-07-14T16:33:24.471Z,100092.48
2018-07-14T16:35:56.432Z,100094.78
2018-07-14T16:38:27.429Z,100091.05
2018-07-14T16:40:58.778Z,100084.97
2018-07-14T16:43:29.648Z,100082.34
2018-07-14T16:46:00.577Z,100079.83
2018-07-14T16:48:31.481Z,100074.14
2018-07-14T16:51:02.510Z,100075.91
2018-07-14T16:53:33.542Z,100069.75
2018-07-14T16:56:04.607Z,100068.88
2018-07-14T16:58:35.561Z,100072.78
2018-07-14T17:01:07.010Z,100068.20
2018-07-14T17:03:39.212Z,100073.95
2018-07-14T17:06:10.486Z,100072.77
2018-07-14T17:08:43.800Z,100069.77
2018-07-14T17:11:15.237Z,100061.75
2018-07-14T17:13:46.367Z,100063.97
2018-07-14T17:16:17.444Z,100067.13
2018-07-14T17:18:49.209Z,100054.25
2018-07-14T17:21:20.368Z,100057.80
2018-07-14T17:23:51.415Z,100057.48
2018-07-14T17:26:22.757Z,100063.98
2018-07-14T17:28:54.023Z,100059.01
2018-07-14T17:31:25.296Z,100059.27
2018-07-14T17:33:56.457Z,100064.78
2018-07-14T17:36:27.507Z,100058.56
2018-07-14T17:38:58.440Z,100063.86
2018-07-14T17:41:29.481Z,100060.76
2018-07-14T17:44:00.558Z,100064.92
2018-07-14T17:46:31.497Z,100067.55
2018-07-14T17:51:39.647Z,100063.73
2018-07-14T17:54:10.598Z,100066.64
2018-07-14T17:56:41.588Z,100068.97
2018-07-14T17:59:12.513Z,100073.41
2018-07-14T18:01:43.485Z,100075.66
2018-07-14T18:04:14.590Z,100081.36
2018-07-14T18:06:46.243Z,100084.36
2018-07-14T18:09:17.395Z,100077.72
2018-07-14T18:11:48.517Z,100079.23
2018-07-14T18:14:19.473Z,100083.00
2018-07-14T18:16:50.482Z,100080.20
2018-07-14T18:19:24.621Z,100074.92
2018-07-14T18:21:55.521Z,100071.39
2018-07-14T18:24:26.524Z,100075.59
2018-07-14T18:26:57.565Z,100072.72
2018-07-14T18:29:28.501Z,100069.94
2018-07-14T18:31:59.472Z,100066.02
2018-07-14T18:34:30.523Z,100065.09
2018-07-14T18:38:31.517Z,100069.41
2018-07-14T18:41:02.501Z,100067.35
2018-07-14T18:43:33.492Z,100067.13
2018-07-14T18:46:04.631Z,100070.50
2018-07-14T18:48:37.589Z,100077.14
2018-07-14T18:51:08.505Z,100072.38
2018-07-14T18:53:39.509Z,100078.49
2018-07-14T18:56:10.492Z,100071.30
2018-07-14T18:58:41.518Z,100080.02
2018-07-14T19:01:12.488Z,100082.57
2018-07-14T19:03:43.529Z,100082.25
2018-07-14T19:06:14.499Z,100082.15
2018-07-14T19:08:45.566Z,100084.75
2018-07-14T19:11:16.494Z,100083.12
2018-07-14T19:13:47.540Z,100086.30
2018-07-14T19:16:18.473Z,100083.24
2018-07-14T19:18:50.311Z,100086.69
2018-07-14T19:21:21.551Z,100086.27
2018-07-14T19:23:52.501Z,100085.13
2018-07-14T19:26:23.553Z,100087.39
2018-07-14T19:28:54.460Z,100089.23
2018-07-14T19:31:25.488Z,100090.88
2018-07-14T19:33:56.486Z,100097.69
2018-07-14T19:36:27.458Z,100096.58
2018-07-14T19:38:59.494Z,100100.95
2018-07-14T19:41:30.468Z,100098.30
2018-07-14T19:44:01.484Z,100109.43
2018-07-14T19:46:32.563Z,100119.84
2018-07-14T19:49:03.479Z,100122.01
2018-07-14T19:51:34.448Z,100114.19
2018-07-14T19:54:05.518Z,100135.24
2018-07-14T19:56:36.452Z,100133.84
2018-07-14T19:59:07.670Z,100140.56
2018-07-14T20:01:38.608Z,100141.10
2018-07-14T20:04:09.494Z,100146.17
2018-07-14T20:06:40.586Z,100152.23
2018-07-14T20:09:11.445Z,100149.63
2018-07-14T20:11:42.526Z,100154.59
2018-07-14T20:14:13.498Z,100156.77
2018-07-14T20:16:44.455Z,100159.24
2018-07-14T20:19:15.470Z,100168.23
2018-07-14T20:21:46.496Z,100164.39
2018-07-14T20:24:17.530Z,100162.41
2018-07-14T20:26:48.521Z,100163.53
2018-07-14T20:29:20.537Z,100165.05
2018-07-14T20:31:51.497Z,100161.05
2018-07-14T20:34:22.482Z,100156.71
2018-07-14T20:36:53.498Z,100163.72
2018-07-14T20:39:24.512Z,100167.92
2018-07-14T20:41:55.590Z,100172.89
2018-07-14T20:44:26.506Z,100171.00
2018-07-14T20:46:57.502Z,100173.75
2018-07-14T20:49:28.488Z,100174.53
2018-07-14T20:51:59.490Z,100169.41
2018-07-14T20:54:30.541Z,100168.45
2018-07-14T20:57:01.525Z,100173.70
2018-07-14T20:59:32.526Z,100175.39
2018-07-14T21:02:03.501Z,100171.49
2018-07-14T21:04:34.467Z,100169.88
2018-07-14T21:07:05.517Z,100172.30
2018-07-14T21:09:36.518Z,100177.47
2018-07-14T21:12:07.523Z,100176.23
2018-07-14T21:14:38.556Z,100177.86
2018-07-14T21:17:09.508Z,100177.23
2018-07-14T21:19:40.507Z,100184.39
2018-07-14T21:22:11.473Z,100181.70
2018-07-14T21:24:42.455Z,100185.72
2018-07-14T21:27:13.495Z,100189.66
2018-07-14T21:29:44.453Z,100192.03
2018-07-14T21:32:15.422Z,100190.39
2018-07-14T21:34:46.826Z,100196.00
2018-07-14T21:37:17.266Z,100191.26
2018-07-14T21:39:48.429Z,100186.99
2018-07-14T21:42:19.460Z,100196.84
2018-07-14T21:44:50.543Z,100197.20
2018-07-14T21:47:21.462Z,100199.16
2018-07-14T21:49:52.481Z,100201.05
2018-07-14T21:52:23.461Z,100200.13
2018-07-14T21:54:54.452Z,100201.26
2018-07-14T21:57:25.431Z,100205.61
2018-07-14T21:59:56.425Z,100202.73
2018-07-14T22:02:27.408Z,100198.16
2018-07-14T22:04:58.780Z,100197.63
2018-07-14T22:07:29.665Z,100203.67
2018-07-14T22:10:00.467Z,100203.66
2018-07-14T22:12:31.409Z,100201.39
2018-07-14T22:15:02.521Z,100199.72
2018-07-14T22:17:33.377Z,100199.12
2018-07-14T22:20:04.442Z,100203.63
2018-07-14T22:22:35.477Z,100201.25
2018-07-14T22:25:06.529Z,100202.08
2018-07-14T22:27:37.482Z,100202.17
2018-07-14T22:32:54.677Z,100207.55
2018-07-14T22:35:25.489Z,100201.86
2018-07-14T22:37:56.441Z,100199.77
2018-07-14T22:40:27.442Z,100197.91
2018-07-14T22:42:58.441Z,100194.59
2018-07-14T22:45:29.446Z,100196.23
2018-07-14T22:48:00.456Z,100199.86
2018-07-14T22:50:31.440Z,100205.43
2018-07-14T22:53:02.476Z,100204.50
2018-07-14T22:55:33.436Z,100210.91
2018-07-14T22:58:04.444Z,100203.45
2018-07-14T23:00:35.453Z,100209.77
2018-07-14T23:03:06.501Z,100204.93
2018-07-14T23:05:37.449Z,100205.43
2018-07-14T23:08:08.473Z,100205.44
2018-07-14T23:10:39.490Z,100202.52
2018-07-14T23:13:10.458Z,100210.47
2018-07-14T23:15:41.712Z,100203.03
2018-07-14T23:18:12.537Z,100202.98
2018-07-14T23:20:43.477Z,100211.39
2018-07-14T23:23:14.444Z,100213.59
2018-07-14T23:25:45.489Z,100216.00
2018-07-14T23:28:16.397Z,100208.77
2018-07-14T23:30:47.433Z,100220.33
2018-07-14T23:33:18.453Z,100215.15
2018-07-14T23:35:49.468Z,100217.08
2018-07-14T23:38:20.492Z,100213.11
2018-07-14T23:40:51.517Z,100216.63
2018-07-14T23:43:22.491Z,100216.34
2018-07-14T23:45:53.509Z,100218.09
2018-07-14T23:48:24.456Z,100214.77
2018-07-14T23:50:55.469Z,100211.81
2018-07-14T23:53:26.501Z,100209.77
2018-07-14T23:55:57.468Z,100200.60
2018-07-14T23:58:28.472Z,100210.84
